Time;durP1;ratioP1;P1;durP2;ratioP2;P2;SDS_P1;SDS_P2;PMS_P1;PMS_P2;Temp;Humidity;BMP_temperature;BMP_pressure;BME280_temperature;BME280_humidity;BME280_pressure;Samples;Min_cycle;Max_cycle;Signal;HPM_P1;HPM_P2
2024/01/22 00:01:24;;;;;;;1999.90;999.90;;;10.10;99.90;;;;;;5074183;28;20016;-75
2024/01/22 00:03:50;;;;;;;1999.90;999.90;;;10.10;99.90;;;;;;5074749;28;20025;-75
2024/01/22 00:06:15;;;;;;;1999.90;999.90;;;10.00;99.90;;;;;;5074796;28;20465;-76
2024/01/22 00:08:41;;;;;;;1999.90;999.90;;;10.00;99.90;;;;;;5075006;28;20054;-75
2024/01/22 00:11:06;;;;;;;1999.90;999.90;;;10.00;99.90;;;;;;5074734;28;20062;-75
2024/01/22 00:13:32;;;;;;;1999.90;999.90;;;10.10;99.90;;;;;;5074474;28;20104;-75
2024/01/22 00:15:58;;;;;;;1999.90;999.90;;;10.00;99.90;;;;;;5074409;28;20029;-72
2024/01/22 00:18:23;;;;;;;1999.90;999.90;;;10.00;99.90;;;;;;5074708;28;20020;-74
2024/01/22 00:20:49;;;;;;;1999.90;999.90;;;10.00;99.90;;;;;;5056695;28;20413;-75
2024/01/22 00:23:14;;;;;;;1999.90;999.90;;;10.00;99.90;;;;;;5074516;28;20020;-75
2024/01/22 00:25:40;;;;;;;1999.90;999.90;;;10.00;99.90;;;;;;5074988;28;20033;-73
2024/01/22 00:28:06;;;;;;;1999.90;999.90;;;10.00;99.90;;;;;;5074386;28;20033;-75
2024/01/22 00:30:31;;;;;;;1999.90;999.90;;;10.00;99.90;;;;;;5074678;28;20507;-75
2024/01/22 00:32:57;;;;;;;1999.90;999.90;;;10.00;99.90;;;;;;5074074;28;20034;-75
2024/01/22 00:35:23;;;;;;;1999.90;999.90;;;10.00;99.90;;;;;;5074406;28;20028;-75
2024/01/22 00:37:48;;;;;;;1999.90;999.90;;;9.90;99.90;;;;;;5074352;28;20525;-75
2024/01/22 00:40:14;;;;;;;1999.90;999.90;;;10.00;99.90;;;;;;5074089;28;20537;-75
2024/01/22 00:42:42;;;;;;;1999.90;999.90;;;10.00;99.90;;;;;;5074202;28;20048;-75
2024/01/22 00:45:08;;;;;;;1999.90;999.90;;;10.00;99.90;;;;;;5074282;28;20017;-75
2024/01/22 00:47:34;;;;;;;1999.90;999.90;;;10.00;99.90;;;;;;5074030;28;20047;-75
2024/01/22 00:49:59;;;;;;;1999.90;999.90;;;9.90;99.90;;;;;;5073857;28;20024;-74
2024/01/22 00:52:25;;;;;;;1999.90;999.90;;;10.00;99.90;;;;;;5075023;28;20364;-75
2024/01/22 00:54:51;;;;;;;1999.90;999.90;;;10.00;99.90;;;;;;5076392;28;20036;-75
2024/01/22 00:57:16;;;;;;;1999.90;999.90;;;10.00;99.90;;;;;;5094383;28;20107;-75
2024/01/22 00:59:42;;;;;;;1999.90;999.90;;;10.00;99.90;;;;;;5080409;28;20025;-75
2024/01/22 01:02:07;;;;;;;1999.90;999.90;;;10.00;99.90;;;;;;5072723;28;20434;-75
2024/01/22 01:04:33;;;;;;;1999.90;999.90;;;10.00;99.90;;;;;;5073301;28;20059;-75
2024/01/22 01:06:59;;;;;;;1999.90;999.90;;;10.10;99.90;;;;;;5073779;28;20035;-74
2024/01/22 01:09:24;;;;;;;1999.90;999.90;;;10.10;99.90;;;;;;5073597;28;20024;-76
2024/01/22 01:11:50;;;;;;;1999.90;999.90;;;10.10;99.90;;;;;;5073537;28;20391;-75
2024/01/22 01:14:15;;;;;;;1999.90;999.90;;;10.10;99.90;;;;;;5073971;28;20020;-75
2024/01/22 01:16:41;;;;;;;1999.90;999.90;;;10.10;99.90;;;;;;5073361;28;20028;-75
2024/01/22 01:19:07;;;;;;;1999.90;999.90;;;10.10;99.90;;;;;;5073405;28;20025;-75
2024/01/22 01:21:32;;;;;;;1999.90;999.90;;;10.10;99.90;;;;;;5073491;28;20035;-75
2024/01/22 01:23:58;;;;;;;1999.90;999.90;;;10.10;99.90;;;;;;5073397;28;20532;-74
2024/01/22 01:26:23;;;;;;;1999.90;999.90;;;10.10;99.90;;;;;;5073278;28;20075;-75
2024/01/22 01:28:49;;;;;;;1999.90;999.90;;;10.10;99.90;;;;;;5073302;28;20035;-75
2024/01/22 01:31:14;;;;;;;1999.90;999.90;;;10.10;99.90;;;;;;5073309;28;20039;-75
2024/01/22 01:33:40;;;;;;;1999.90;999.90;;;10.10;99.90;;;;;;5072960;28;20028;-74
2024/01/22 01:36:06;;;;;;;1999.90;999.90;;;10.20;99.90;;;;;;5073291;28;20058;-74
2024/01/22 01:38:31;;;;;;;1999.90;999.90;;;10.20;99.90;;;;;;5073162;28;20020;-75
2024/01/22 01:40:57;;;;;;;1999.90;999.90;;;10.30;99.90;;;;;;5073221;28;20059;-75
2024/01/22 01:43:23;;;;;;;1999.90;999.90;;;10.30;99.90;;;;;;5073314;28;20459;-72
2024/01/22 01:45:48;;;;;;;1999.90;999.90;;;10.30;99.90;;;;;;5073317;28;20150;-75
2024/01/22 01:48:14;;;;;;;1999.90;999.90;;;10.30;99.90;;;;;;5072838;28;20035;-75
2024/01/22 01:50:40;;;;;;;1999.90;999.90;;;10.40;99.90;;;;;;5073139;28;20025;-75
2024/01/22 01:53:06;;;;;;;1999.90;999.90;;;10.40;99.90;;;;;;5081533;28;20135;-75
2024/01/22 01:55:35;;;;;;;1999.90;999.90;;;10.40;99.90;;;;;;5076065;28;20036;-74
2024/01/22 01:58:01;;;;;;;1999.90;999.90;;;10.50;99.90;;;;;;5072722;28;20429;-74
2024/01/22 02:00:28;;;;;;;1999.90;999.90;;;10.50;99.90;;;;;;5072665;28;20097;-75
2024/01/22 02:02:53;;;;;;;1999.90;999.90;;;10.60;99.90;;;;;;5054307;28;20060;-75
2024/01/22 02:05:19;;;;;;;1999.90;999.90;;;10.60;99.90;;;;;;5072931;28;20080;-75
2024/01/22 02:07:46;;;;;;;1999.90;999.90;;;10.60;99.90;;;;;;5072850;28;20031;-75
2024/01/22 02:10:12;;;;;;;1999.90;999.90;;;10.50;99.90;;;;;;5073013;28;20032;-75
2024/01/22 02:12:38;;;;;;;1999.90;999.90;;;10.60;99.90;;;;;;5072818;28;20052;-75
2024/01/22 02:15:05;;;;;;;1999.90;999.90;;;10.60;99.90;;;;;;5073038;28;20568;-74
2024/01/22 02:17:30;;;;;;;1999.90;999.90;;;10.60;99.90;;;;;;5073058;28;20021;-75
2024/01/22 02:19:56;;;;;;;1999.90;999.90;;;10.70;99.90;;;;;;5072728;28;20487;-71
2024/01/22 02:22:22;;;;;;;1999.90;999.90;;;10.70;99.90;;;;;;5072582;28;20096;-75
2024/01/22 02:24:48;;;;;;;1999.90;999.90;;;10.70;99.90;;;;;;5072938;28;20028;-75
2024/01/22 02:27:14;;;;;;;1999.90;999.90;;;10.70;99.90;;;;;;5072663;28;20051;-74
2024/01/22 02:29:39;;;;;;;1999.90;999.90;;;10.70;99.90;;;;;;5072576;28;20095;-74
2024/01/22 02:32:05;;;;;;;1999.90;999.90;;;10.70;99.90;;;;;;5072523;28;20491;-74
2024/01/22 02:34:31;;;;;;;1999.90;999.90;;;10.60;99.90;;;;;;5051215;28;20064;-74
2024/01/22 02:36:56;;;;;;;1999.90;999.90;;;10.50;99.90;;;;;;5056108;28;20074;-76
2024/01/22 02:39:22;;;;;;;1999.90;999.90;;;10.50;99.90;;;;;;5072265;28;20107;-75
2024/01/22 02:41:48;;;;;;;1999.90;999.90;;;10.70;99.90;;;;;;5072198;28;20044;-75
2024/01/22 02:44:13;;;;;;;1999.90;999.90;;;10.70;99.90;;;;;;5072275;28;20163;-76
2024/01/22 02:46:39;;;;;;;1999.90;999.90;;;11.00;99.90;;;;;;5072710;28;20035;-77
2024/01/22 02:49:07;;;;;;;1999.90;999.90;;;11.10;99.90;;;;;;5072182;28;20032;-75
2024/01/22 02:51:32;;;;;;;1999.90;999.90;;;11.20;99.90;;;;;;5073657;28;20063;-75
2024/01/22 02:53:58;;;;;;;1999.90;999.90;;;11.20;99.90;;;;;;5083379;28;20464;-75
2024/01/22 02:56:24;;;;;;;1999.90;999.90;;;11.30;99.90;;;;;;5071820;28;20052;-76
2024/01/22 02:58:50;;;;;;;1999.90;999.90;;;11.40;99.90;;;;;;5072174;28;20055;-76
2024/01/22 03:01:16;;;;;;;1999.90;999.90;;;11.50;99.90;;;;;;5071999;28;20471;-75
2024/01/22 03:03:42;;;;;;;1999.90;999.90;;;11.40;99.90;;;;;;5071879;28;20025;-75
2024/01/22 03:06:08;;;;;;;1999.90;999.90;;;11.50;99.90;;;;;;5072089;28;20242;-75
2024/01/22 03:08:34;;;;;;;1999.90;999.90;;;11.40;99.90;;;;;;5072058;28;20121;-75
2024/01/22 03:11:00;;;;;;;1999.90;999.90;;;11.50;99.90;;;;;;5071915;28;20032;-70
2024/01/22 03:13:25;;;;;;;1999.90;999.90;;;11.50;99.90;;;;;;5072424;28;20035;-75
2024/01/22 03:15:51;;;;;;;1999.90;999.90;;;11.50;99.90;;;;;;5073127;28;20032;-74
2024/01/22 03:18:16;;;;;;;1999.90;999.90;;;11.50;99.90;;;;;;5075667;28;20066;-75
2024/01/22 03:20:42;;;;;;;1999.90;999.90;;;11.60;99.90;;;;;;5075723;28;20028;-70
2024/01/22 03:23:07;;;;;;;1999.90;999.90;;;11.80;99.90;;;;;;5075514;28;20028;-75
2024/01/22 03:25:33;;;;;;;1999.90;999.90;;;11.80;99.90;;;;;;5075939;28;20033;-75
2024/01/22 03:27:59;;;;;;;1999.90;999.90;;;12.00;99.90;;;;;;5075190;28;20056;-76
2024/01/22 03:30:24;;;;;;;1999.90;999.90;;;12.10;99.90;;;;;;5075635;28;20029;-75
2024/01/22 03:32:50;;;;;;;1999.90;999.90;;;12.20;99.90;;;;;;5075329;28;20434;-76
2024/01/22 03:35:16;;;;;;;1999.90;999.90;;;12.30;99.90;;;;;;5074922;28;20025;-75
2024/01/22 03:37:41;;;;;;;1999.90;999.90;;;12.50;99.90;;;;;;5075440;28;20028;-75
2024/01/22 03:40:09;;;;;;;1999.90;999.90;;;12.50;99.90;;;;;;5075250;28;20016;-76
2024/01/22 03:42:36;;;;;;;1999.90;999.90;;;12.60;99.90;;;;;;5075024;28;20027;-76
2024/01/22 03:45:02;;;;;;;1999.90;999.90;;;12.60;99.90;;;;;;5074577;28;20028;-76
2024/01/22 03:47:27;;;;;;;1999.90;999.90;;;12.60;99.90;;;;;;5075230;28;20082;-77
2024/01/22 03:49:53;;;;;;;1999.90;999.90;;;12.80;99.90;;;;;;5056952;28;20039;-76
2024/01/22 03:52:19;;;;;;;1999.90;999.90;;;12.80;99.90;;;;;;5078458;28;20025;-76
2024/01/22 03:54:44;;;;;;;1999.90;999.90;;;12.80;99.90;;;;;;5083749;28;20029;-77
2024/01/22 03:57:10;;;;;;;1999.90;999.90;;;12.70;99.90;;;;;;5075025;28;20028;-71
2024/01/22 03:59:39;;;;;;;1999.90;999.90;;;12.70;99.90;;;;;;5074434;28;20021;-77
2024/01/22 04:02:05;;;;;;;1999.90;999.90;;;12.70;99.90;;;;;;5074407;28;20417;-76
2024/01/22 04:04:30;;;;;;;1999.90;999.90;;;12.60;99.90;;;;;;5074613;28;20044;-76
2024/01/22 04:06:57;;;;;;;1999.90;999.90;;;12.60;99.90;;;;;;5056949;28;20094;-77
2024/01/22 04:09:23;;;;;;;1999.90;999.90;;;12.70;99.90;;;;;;5074369;28;20040;-77
2024/01/22 04:11:48;;;;;;;1999.90;999.90;;;12.70;99.90;;;;;;5056512;28;20032;-77
2024/01/22 04:14:14;;;;;;;1999.90;999.90;;;12.60;99.90;;;;;;5074966;28;20100;-76
2024/01/22 04:16:40;;;;;;;1999.90;999.90;;;12.80;99.90;;;;;;5074699;28;20435;-77
2024/01/22 04:19:05;;;;;;;1999.90;999.90;;;12.80;99.90;;;;;;5074473;28;20013;-76
2024/01/22 04:21:31;;;;;;;1999.90;999.90;;;12.80;99.90;;;;;;5074512;28;20028;-76
2024/01/22 04:23:57;;;;;;;1999.90;999.90;;;12.90;99.90;;;;;;5074441;28;20024;-76
2024/01/22 04:26:23;;;;;;;1999.90;999.90;;;12.90;99.90;;;;;;5074291;28;20086;-77
2024/01/22 04:28:48;;;;;;;1999.90;999.90;;;12.80;99.90;;;;;;5074604;28;20032;-76
2024/01/22 04:31:14;;;;;;;1999.90;999.90;;;12.90;99.90;;;;;;5074257;28;20423;-78
2024/01/22 04:33:43;;;;;;;1999.90;999.90;;;13.00;99.90;;;;;;5073925;28;20013;-76
2024/01/22 04:36:09;;;;;;;1999.90;999.90;;;13.10;99.90;;;;;;5074044;28;20020;-77
2024/01/22 04:38:34;;;;;;;1999.90;999.90;;;13.10;99.90;;;;;;5073913;28;20023;-77
2024/01/22 04:41:00;;;;;;;1999.90;999.90;;;13.10;99.90;;;;;;5074079;28;20029;-71
2024/01/22 04:43:26;;;;;;;1999.90;999.90;;;12.90;99.90;;;;;;5074013;28;20024;-75
2024/01/22 04:45:51;;;;;;;1999.90;999.90;;;12.90;99.90;;;;;;5073836;28;20025;-76
2024/01/22 04:48:17;;;;;;;1999.90;999.90;;;13.00;99.90;;;;;;5073713;28;20028;-76
2024/01/22 04:50:43;;;;;;;1999.90;999.90;;;13.00;99.90;;;;;;5074428;28;20406;-75
2024/01/22 04:53:08;;;;;;;1999.90;999.90;;;12.90;99.90;;;;;;5082642;28;20446;-72
2024/01/22 04:55:34;;;;;;;1999.90;999.90;;;12.80;99.90;;;;;;5077474;28;20399;-76
2024/01/22 04:58:00;;;;;;;1999.90;999.90;;;12.80;99.90;;;;;;5073822;28;20386;-75
2024/01/22 05:00:25;;;;;;;1999.90;999.90;;;12.80;99.90;;;;;;5073304;28;20538;-76
2024/01/22 05:02:51;;;;;;;1999.90;999.90;;;12.70;99.90;;;;;;5073562;28;20025;-72
2024/01/22 05:05:17;;;;;;;1999.90;999.90;;;12.80;99.90;;;;;;5073617;28;20060;-71
2024/01/22 05:07:42;;;;;;;1999.90;999.90;;;12.90;99.90;;;;;;5055454;28;20036;-72
2024/01/22 05:10:13;;;;;;;1999.90;999.90;;;12.90;99.90;;;;;;5073763;28;20058;-76
2024/01/22 05:12:39;;;;;;;1999.90;999.90;;;12.90;99.90;;;;;;5073272;28;20111;-77
2024/01/22 05:15:05;;;;;;;1999.90;999.90;;;12.90;99.90;;;;;;5073497;28;20491;-75
2024/01/22 05:17:32;;;;;;;1999.90;999.90;;;13.00;99.90;;;;;;5073821;28;20024;-76
2024/01/22 05:19:58;;;;;;;1999.90;999.90;;;13.00;99.90;;;;;;5073451;28;20024;-77
2024/01/22 05:22:24;;;;;;;1999.90;999.90;;;13.00;99.90;;;;;;5073278;28;20078;-71
2024/01/22 05:24:50;;;;;;;1999.90;999.90;;;13.00;99.90;;;;;;5073326;28;20095;-76
2024/01/22 05:27:16;;;;;;;1999.90;999.90;;;13.00;99.90;;;;;;5072703;28;20444;-76
2024/01/22 05:29:42;;;;;;;1999.90;999.90;;;13.00;99.90;;;;;;5072560;28;20021;-76
2024/01/22 05:32:07;;;;;;;1999.90;999.90;;;13.00;99.90;;;;;;5073146;28;20027;-76
2024/01/22 05:34:33;;;;;;;1999.90;999.90;;;13.00;99.90;;;;;;5052096;28;20463;-75
2024/01/22 05:36:59;;;;;;;1999.90;999.90;;;13.10;99.90;;;;;;5085148;28;20467;-78
2024/01/22 05:39:26;;;;;;;1999.90;999.90;;;13.10;99.90;;;;;;5072814;28;20464;-77
2024/01/22 05:41:52;;;;;;;1999.90;999.90;;;13.20;99.90;;;;;;5072782;28;20025;-78
2024/01/22 05:44:17;;;;;;;1999.90;999.90;;;13.20;99.90;;;;;;5072710;28;20371;-76
2024/01/22 05:46:43;;;;;;;1999.90;999.90;;;13.20;99.90;;;;;;5073012;28;20035;-72
2024/01/22 05:49:10;;;;;;;1999.90;999.90;;;13.20;99.90;;;;;;5072807;28;20070;-78
2024/01/22 05:51:36;;;;;;;1999.90;999.90;;;13.20;99.90;;;;;;5074032;28;20537;-72
2024/01/22 05:54:02;;;;;;;1999.90;999.90;;;13.20;99.90;;;;;;5083960;28;20028;-76
2024/01/22 05:56:28;;;;;;;1999.90;999.90;;;13.30;99.90;;;;;;5072907;28;20028;-76
2024/01/22 05:58:56;;;;;;;1999.90;999.90;;;13.40;99.90;;;;;;5071000;28;20024;-77
2024/01/22 06:01:24;;;;;;;1999.90;999.90;;;13.40;99.90;;;;;;5072373;28;20048;-76
2024/01/22 06:03:50;;;;;;;1999.90;999.90;;;13.50;99.90;;;;;;5072350;28;20025;-71
2024/01/22 06:06:16;;;;;;;1999.90;999.90;;;13.50;99.90;;;;;;5060734;28;20105;-76
2024/01/22 06:08:47;;;;;;;1999.90;999.90;;;13.50;99.90;;;;;;5078214;28;20056;-76
2024/01/22 06:11:13;;;;;;;1999.90;999.90;;;13.50;99.90;;;;;;5072847;28;20021;-71
2024/01/22 06:13:39;;;;;;;1999.90;999.90;;;13.50;99.90;;;;;;5072371;28;20028;-77
2024/01/22 06:16:15;;;;;;;1999.90;999.90;;;13.50;99.90;;;;;;5072679;28;20387;-77
2024/01/22 06:18:42;;;;;;;1999.90;999.90;;;13.50;99.90;;;;;;5072702;28;20016;-77
2024/01/22 06:21:11;;;;;;;1999.90;999.90;;;13.40;99.90;;;;;;5072744;28;20029;-76
2024/01/22 06:23:37;;;;;;;1999.90;999.90;;;13.40;99.90;;;;;;5072345;28;20153;-77
2024/01/22 06:26:03;;;;;;;1999.90;999.90;;;13.40;99.90;;;;;;5071331;28;20060;-78
2024/01/22 06:28:31;;;;;;;1999.90;999.90;;;13.30;99.90;;;;;;5072174;28;20043;-78
2024/01/22 06:30:57;;;;;;;1999.90;999.90;;;13.30;99.90;;;;;;5072037;28;20376;-77
2024/01/22 06:33:23;;;;;;;1999.90;999.90;;;13.40;99.90;;;;;;5061589;28;20029;-72
2024/01/22 06:35:49;;;;;;;1999.90;999.90;;;13.40;99.90;;;;;;5071995;28;20111;-73
2024/01/22 06:38:18;;;;;;;1999.90;999.90;;;13.40;99.90;;;;;;5074141;28;20123;-73
2024/01/22 06:40:44;;;;;;;1999.90;999.90;;;13.50;99.90;;;;;;5071128;28;20032;-71
2024/01/22 06:43:10;;;;;;;1999.90;999.90;;;13.50;99.90;;;;;;5072215;28;20028;-72
2024/01/22 06:45:37;;;;;;;1999.90;999.90;;;13.40;99.90;;;;;;5073928;28;20032;-71
2024/01/22 06:48:03;;;;;;;1999.90;999.90;;;13.40;99.90;;;;;;5071869;28;20368;-71
2024/01/22 06:50:28;;;;;;;1999.90;999.90;;;13.40;99.90;;;;;;5089483;28;20126;-71
2024/01/22 06:52:54;;;;;;;1999.90;999.90;;;13.50;99.90;;;;;;5087611;28;20074;-71
2024/01/22 06:55:20;;;;;;;1999.90;999.90;;;13.40;99.90;;;;;;5066586;28;20035;-71
2024/01/22 06:57:45;;;;;;;1999.90;999.90;;;13.50;99.90;;;;;;5095186;28;20020;-71
2024/01/22 07:00:12;;;;;;;1999.90;999.90;;;13.50;99.90;;;;;;5086664;28;20457;-76
2024/01/22 07:02:38;;;;;;;1999.90;999.90;;;13.50;99.90;;;;;;5079872;28;20066;-75
2024/01/22 07:05:06;;;;;;;1999.90;999.90;;;13.60;99.90;;;;;;5091283;28;20606;-71
2024/01/22 07:07:32;;;;;;;1999.90;999.90;;;13.60;99.90;;;;;;5075063;28;20021;-71
2024/01/22 07:09:58;;;;;;;1999.90;999.90;;;13.70;99.90;;;;;;5078288;28;20043;-72
2024/01/22 07:12:24;;;;;;;1999.90;999.90;;;13.70;99.90;;;;;;5073843;28;20024;-76
2024/01/22 07:14:50;;;;;;;1999.90;999.90;;;13.70;99.90;;;;;;5072563;28;20047;-78
2024/01/22 07:17:17;;;;;;;1999.90;999.90;;;13.70;99.90;;;;;;5083890;28;20506;-78
2024/01/22 07:19:43;;;;;;;1999.90;999.90;;;13.80;99.90;;;;;;5082679;28;20020;-71
2024/01/22 07:22:09;;;;;;;1999.90;999.90;;;13.70;99.90;;;;;;5069607;28;20029;-78
2024/01/22 07:24:35;;;;;;;1999.90;999.90;;;13.80;99.90;;;;;;5056734;28;20067;-71
2024/01/22 07:27:01;;;;;;;1999.90;999.90;;;13.80;99.90;;;;;;5073927;28;20063;-77
2024/01/22 07:29:26;;;;;;;1999.90;999.90;;;13.90;99.90;;;;;;5071989;28;20882;-76
2024/01/22 07:31:52;;;;;;;1999.90;999.90;;;13.90;99.90;;;;;;5074040;28;20036;-71
2024/01/22 07:34:18;;;;;;;1999.90;999.90;;;13.90;99.90;;;;;;5066125;28;20029;-71
2024/01/22 07:36:43;;;;;;;1999.90;999.90;;;13.90;99.90;;;;;;5071020;28;20024;-71
2024/01/22 07:39:09;;;;;;;1999.90;999.90;;;13.90;99.90;;;;;;5073076;28;20035;-77
2024/01/22 07:41:38;;;;;;;1999.90;999.90;;;13.90;99.90;;;;;;5073484;28;20055;-78
2024/01/22 07:44:04;;;;;;;1999.90;999.90;;;13.90;99.90;;;;;;5067759;28;20025;-71
2024/01/22 07:46:30;;;;;;;1999.90;999.90;;;13.90;99.90;;;;;;5072806;28;20032;-78
2024/01/22 07:48:56;;;;;;;1999.90;999.90;;;13.90;99.90;;;;;;5055850;28;20035;-72
2024/01/22 07:51:23;;;;;;;1999.90;999.90;;;14.00;99.90;;;;;;5070548;28;20896;-72
2024/01/22 07:53:49;;;;;;;1999.90;999.90;;;14.00;99.90;;;;;;5072972;28;20032;-77
2024/01/22 07:56:14;;;;;;;1999.90;999.90;;;14.00;99.90;;;;;;5069026;28;20074;-78
2024/01/22 07:58:40;;;;;;;1999.90;999.90;;;14.00;99.90;;;;;;5071724;28;20064;-72
2024/01/22 08:01:07;;;;;;;1999.90;999.90;;;14.00;99.90;;;;;;5050966;28;20031;-81
2024/01/22 08:03:33;;;;;;;1999.90;999.90;;;14.00;99.90;;;;;;5071878;28;20070;-78
2024/01/22 08:05:59;;;;;;;1999.90;999.90;;;14.00;99.90;;;;;;5071703;28;20056;-78
2024/01/22 08:08:25;;;;;;;1999.90;999.90;;;14.00;99.90;;;;;;5071264;28;20093;-79
2024/01/22 08:10:51;;;;;;;1999.90;999.90;;;14.00;99.90;;;;;;5071121;28;20586;-71
2024/01/22 08:13:17;;;;;;;1999.90;999.90;;;14.00;99.90;;;;;;5069906;28;20108;-71
2024/01/22 08:15:43;;;;;;;1999.90;999.90;;;14.00;99.90;;;;;;5070406;28;20491;-70
2024/01/22 08:18:09;;;;;;;1999.90;999.90;;;14.00;99.90;;;;;;5071885;28;20031;-77
2024/01/22 08:20:35;;;;;;;1999.90;999.90;;;14.00;99.90;;;;;;5071226;28;20028;-77
2024/01/22 08:23:01;;;;;;;1999.90;999.90;;;14.00;99.90;;;;;;5067803;28;20085;-71
2024/01/22 08:25:29;;;;;;;1999.90;999.90;;;14.00;99.90;;;;;;5071924;28;20033;-77
2024/01/22 08:27:55;;;;;;;1999.90;999.90;;;14.00;99.90;;;;;;5071669;28;20043;-77
2024/01/22 08:30:21;;;;;;;1999.90;999.90;;;14.00;99.90;;;;;;5072995;28;20089;-71
2024/01/22 08:32:48;;;;;;;1999.90;999.90;;;14.10;99.90;;;;;;5070731;28;20028;-77
2024/01/22 08:35:15;;;;;;;1999.90;999.90;;;14.10;99.90;;;;;;5069378;28;20041;-71
2024/01/22 08:37:40;;;;;;;1999.90;999.90;;;14.10;99.90;;;;;;5070624;28;20101;-71
2024/01/22 08:40:07;;;;;;;1999.90;999.90;;;14.10;99.90;;;;;;5067966;28;20129;-71
2024/01/22 08:42:33;;;;;;;1999.90;999.90;;;14.10;99.90;;;;;;5070727;28;20028;-71
2024/01/22 08:44:58;;;;;;;1999.90;999.90;;;14.00;99.90;;;;;;5070412;28;20577;-71
2024/01/22 08:47:24;;;;;;;1999.90;999.90;;;14.10;99.90;;;;;;5073766;28;20107;-77
2024/01/22 08:49:49;;;;;;;1999.90;999.90;;;14.00;99.90;;;;;;5070951;28;20040;-77
2024/01/22 08:52:15;;;;;;;1999.90;999.90;;;14.10;99.90;;;;;;5073267;28;20520;-77
2024/01/22 08:54:41;;;;;;;1999.90;999.90;;;14.10;99.90;;;;;;5071351;28;20043;-71
2024/01/22 08:57:07;;;;;;;1999.90;999.90;;;14.10;99.90;;;;;;5071993;28;20508;-77
2024/01/22 08:59:33;;;;;;;1999.90;999.90;;;14.10;99.90;;;;;;5047014;28;20032;-76
2024/01/22 09:01:59;;;;;;;1999.90;999.90;;;14.10;99.90;;;;;;5067299;28;20024;-76
2024/01/22 09:04:25;;;;;;;1999.90;999.90;;;14.20;99.90;;;;;;5069579;28;20090;-73
2024/01/22 09:06:51;;;;;;;1999.90;999.90;;;14.20;99.90;;;;;;5070593;28;20112;-76
2024/01/22 09:09:17;;;;;;;1999.90;999.90;;;14.20;99.90;;;;;;5052437;28;20029;-71
2024/01/22 09:11:43;;;;;;;1999.90;999.90;;;14.20;99.90;;;;;;5068486;28;20032;-77
2024/01/22 09:14:08;;;;;;;1999.90;999.90;;;14.20;99.90;;;;;;5070094;28;20032;-77
2024/01/22 09:16:34;;;;;;;1999.90;999.90;;;14.30;99.90;;;;;;5070728;28;20041;-71
2024/01/22 09:19:00;;;;;;;1999.90;999.90;;;14.30;99.90;;;;;;5071019;28;20028;-71
2024/01/22 09:21:25;;;;;;;1999.90;999.90;;;14.30;99.90;;;;;;5070028;28;20055;-71
2024/01/22 09:23:51;;;;;;;1999.90;999.90;;;14.30;99.90;;;;;;5070475;28;20020;-76
2024/01/22 09:26:16;;;;;;;1999.90;999.90;;;14.30;99.90;;;;;;5070675;28;20090;-71
2024/01/22 09:28:42;;;;;;;1999.90;999.90;;;14.30;99.90;;;;;;5074143;28;20048;-72
2024/01/22 09:31:08;;;;;;;1999.90;999.90;;;14.30;99.90;;;;;;5083010;28;20110;-76
2024/01/22 09:33:33;;;;;;;1999.90;999.90;;;14.30;99.90;;;;;;5067244;28;20025;-71
2024/01/22 09:36:01;;;;;;;1999.90;999.90;;;14.30;99.90;;;;;;5070799;28;20043;-71
2024/01/22 09:38:27;;;;;;;1999.90;999.90;;;14.30;99.90;;;;;;5068672;28;20395;-78
2024/01/22 09:40:53;;;;;;;1999.90;999.90;;;14.40;99.90;;;;;;5067710;28;20032;-70
2024/01/22 09:43:19;;;;;;;1999.90;999.90;;;14.40;99.90;;;;;;5061721;28;20502;-71
2024/01/22 09:45:47;;;;;;;1999.90;999.90;;;14.40;99.90;;;;;;5070577;28;20039;-76
2024/01/22 09:48:13;;;;;;;1999.90;999.90;;;14.40;99.90;;;;;;5080949;28;20028;-77
2024/01/22 09:50:39;;;;;;;1999.90;999.90;;;14.40;99.90;;;;;;5069909;28;20036;-77
2024/01/22 09:53:09;;;;;;;1999.90;999.90;;;14.40;99.90;;;;;;5070678;28;20091;-77
2024/01/22 09:55:41;;;;;;;1999.90;999.90;;;14.40;99.90;;;;;;5069956;28;20084;-72
2024/01/22 09:58:11;;;;;;;1999.90;999.90;;;14.40;99.90;;;;;;5070417;28;20017;-71
2024/01/22 10:00:38;;;;;;;1999.90;999.90;;;14.40;99.90;;;;;;5069309;28;20159;-76
2024/01/22 10:03:04;;;;;;;1999.90;999.90;;;14.40;99.90;;;;;;5063935;28;20029;-76
2024/01/22 10:05:31;;;;;;;1999.90;999.90;;;14.50;99.90;;;;;;5089039;28;20117;-76
2024/01/22 10:07:56;;;;;;;1999.90;999.90;;;14.50;99.90;;;;;;5091756;28;20032;-70
2024/01/22 10:10:22;;;;;;;1999.90;999.90;;;14.60;99.90;;;;;;5086605;28;20028;-77
2024/01/22 10:12:57;;;;;;;1999.90;999.90;;;14.50;99.90;;;;;;5080952;28;20035;-81
2024/01/22 10:15:23;;;;;;;1999.90;999.90;;;14.50;99.90;;;;;;5070641;28;20028;-77
2024/01/22 10:17:49;;;;;;;1999.90;999.90;;;14.50;99.90;;;;;;5074561;28;20503;-78
2024/01/22 10:20:16;;;;;;;1999.90;999.90;;;14.50;99.90;;;;;;5075819;28;20059;-72
2024/01/22 10:22:41;;;;;;;1999.90;999.90;;;14.50;99.90;;;;;;5073894;28;20117;-76
2024/01/22 10:25:08;;;;;;;1999.90;999.90;;;14.60;99.90;;;;;;5088265;28;20107;-71
2024/01/22 10:27:34;;;;;;;1999.90;999.90;;;14.60;99.90;;;;;;5072220;28;20036;-71
2024/01/22 10:30:11;;;;;;;1999.90;999.90;;;14.70;99.90;;;;;;5080637;28;20033;-77
2024/01/22 10:32:36;;;;;;;1999.90;999.90;;;14.70;99.90;;;;;;5071914;28;20059;-77
2024/01/22 10:35:03;;;;;;;1999.90;999.90;;;14.70;99.90;;;;;;5081582;28;20020;-75
2024/01/22 10:37:29;;;;;;;1999.90;999.90;;;14.50;99.90;;;;;;5074149;28;20107;-77
2024/01/22 10:40:09;;;;;;;1999.90;999.90;;;14.40;99.90;;;;;;5074503;28;20107;-71
2024/01/22 10:42:35;;;;;;;1999.90;999.90;;;14.40;99.90;;;;;;5073894;28;20099;-71
2024/01/22 10:45:07;;;;;;;1999.90;999.90;;;14.40;99.90;;;;;;5080828;28;20114;-76
2024/01/22 10:47:33;;;;;;;1999.90;999.90;;;14.30;99.90;;;;;;5074653;28;20033;-71
2024/01/22 10:50:02;;;;;;;1999.90;999.90;;;14.30;99.90;;;;;;5074757;28;20028;-77
2024/01/22 10:52:29;;;;;;;1999.90;999.90;;;14.10;99.90;;;;;;5078324;28;20024;-77
2024/01/22 10:54:55;;;;;;;1999.90;999.90;;;14.10;99.90;;;;;;5092188;28;20059;-78
2024/01/22 10:57:46;;;;;;;1999.90;999.90;;;14.00;99.90;;;;;;5074134;28;20424;-72
2024/01/22 11:00:15;;;;;;;1999.90;999.90;;;14.00;99.90;;;;;;5064192;28;20586;-71
2024/01/22 11:02:48;;;;;;;1999.90;999.90;;;13.90;99.90;;;;;;5074270;28;20100;-72
2024/01/22 11:05:14;;;;;;;;;;;13.90;99.90;;;;;;5076920;28;20039;-72
2024/01/22 11:07:41;;;;;;;1999.90;999.90;;;13.70;99.90;;;;;;5073348;28;19912;-78
2024/01/22 11:10:09;;;;;;;1999.90;999.90;;;13.60;99.90;;;;;;5074260;28;20384;-78
2024/01/22 11:12:45;;;;;;;1999.90;999.90;;;13.50;99.90;;;;;;5073578;28;20033;-77
2024/01/22 11:15:11;;;;;;;1999.90;999.90;;;13.40;99.90;;;;;;5086409;28;20027;-71
2024/01/22 11:17:37;;;;;;;1999.90;999.90;;;13.30;99.90;;;;;;5078632;28;20024;-72
2024/01/22 11:20:22;;;;;;;1999.90;999.90;;;13.30;99.90;;;;;;5078147;28;20020;-77
2024/01/22 11:23:01;;;;;;;1999.90;999.90;;;13.20;99.90;;;;;;5080122;28;20035;-71
2024/01/22 11:25:30;;;;;;;1999.90;999.90;;;13.20;99.90;;;;;;5074906;28;20107;-72
2024/01/22 11:28:04;;;;;;;1999.90;999.90;;;13.10;99.90;;;;;;5083680;28;20056;-71
2024/01/22 11:30:36;;;;;;;1999.90;999.90;;;13.20;99.90;;;;;;5073295;28;20580;-71
2024/01/22 11:33:11;;;;;;;1999.90;999.90;;;13.10;99.90;;;;;;5073566;28;20044;-78
2024/01/22 11:35:38;;;;;;;1999.90;999.90;;;13.10;99.90;;;;;;5052290;28;20415;-79
2024/01/22 11:38:05;;;;;;;1999.90;999.90;;;13.20;99.90;;;;;;5072266;28;20024;-72
2024/01/22 11:40:49;;;;;;;1999.90;999.90;;;13.20;99.90;;;;;;5073564;28;20503;-72
2024/01/22 11:43:17;;;;;;;1999.90;999.90;;;13.20;99.90;;;;;;5082943;28;20045;-72
2024/01/22 11:45:48;;;;;;;1999.90;999.90;;;13.30;99.90;;;;;;5053080;28;20364;-78
2024/01/22 11:48:16;;;;;;;1999.90;999.90;;;13.30;99.90;;;;;;5075616;28;20442;-78
2024/01/22 11:50:42;;;;;;;1999.90;999.90;;;13.30;99.90;;;;;;5056894;28;20028;-73
2024/01/22 11:53:08;;;;;;;1999.90;999.90;;;13.10;99.90;;;;;;5072362;28;20020;-78
2024/01/22 11:55:34;;;;;;;1999.90;999.90;;;13.00;99.90;;;;;;5070594;28;20044;-72